Villa Belgrano, Argentina
Current Conditions -  °F | °C
As of 2:00 PM on Wednesday 26 Nov 2014 (Local Time) from SANT Reporting Station
Broken Clouds Broken Clouds  
Wind Chill: 75°   Ceiling: 4500
Heat Index: 75°   Visibility: 5mi
Dew Point: 64°   Wind: 10mph
Humidity: 69%   Direction: 180°S
Pressure: 30"   Gusts: NA
Location:  27.52°S, 65.62°W
Report Text: SANT 261700Z 18009KT 8000 SCT025 BKN04524/18 Q1016
Loading
Personal Weather Stations






























Interactive Weather Map New forecast layout! Learn more

10-Day Weather Forecast

Advertisements
Track Severe Weather on mobile